createdAt,value
2016-11-23T18:53:10.000Z,56
2016-11-23T18:53:52.886Z,52
2016-11-23T18:54:35.879Z,52
2016-11-23T18:55:19.611Z,52
2016-11-23T18:56:02.829Z,56
2016-11-23T18:56:45.343Z,56
2016-11-23T18:57:26.058Z,12
2016-11-23T18:58:07.271Z,4
2016-11-23T18:58:48.356Z,4
2016-11-23T18:59:29.056Z,4
2016-11-23T19:00:09.760Z,4
2016-11-23T19:00:50.466Z,4
2016-11-23T19:01:31.178Z,4
2016-11-23T19:02:12.447Z,0
2016-11-23T19:02:55.329Z,12
2016-11-23T20:20:47.154Z,192
2016-11-23T20:20:52.873Z,192
2016-11-23T20:20:59.054Z,192
2016-11-23T20:21:04.802Z,192
2016-11-23T20:21:10.521Z,192
2016-11-23T20:21:16.242Z,192
2016-11-23T20:21:21.960Z,192
2016-11-23T20:21:27.674Z,192
2016-11-23T20:21:33.398Z,192
2016-11-23T20:21:39.137Z,188
2016-11-23T20:21:44.868Z,188
2016-11-23T20:21:50.593Z,192
2016-11-23T20:21:56.316Z,192
2016-11-23T20:22:02.038Z,192
2016-11-23T20:22:07.930Z,192
2016-11-23T20:22:13.503Z,192
2016-11-23T20:22:19.222Z,192
2016-11-23T20:22:24.946Z,192
2016-11-23T20:22:30.671Z,192
2016-11-23T20:22:36.389Z,192
2016-11-23T20:22:42.104Z,192
2016-11-23T20:22:47.821Z,192
2016-11-23T20:22:53.544Z,192
2016-11-23T20:22:59.258Z,192
2016-11-23T20:23:04.977Z,192
2016-11-23T20:23:10.693Z,192
2016-11-23T20:23:16.413Z,192
2016-11-23T20:23:22.130Z,188
2016-11-23T20:23:27.843Z,188
2016-11-23T20:23:33.564Z,188
2016-11-23T20:23:39.286Z,188
2016-11-23T20:23:45.003Z,188
2016-11-23T20:23:50.719Z,188
2016-11-23T20:23:56.433Z,188
2016-11-23T20:24:02.156Z,188
2016-11-23T20:24:07.874Z,188
2016-11-23T20:24:13.594Z,188
2016-11-23T20:24:19.318Z,188
2016-11-23T20:24:25.047Z,188
2016-11-23T20:24:30.772Z,188
2016-11-23T20:24:36.489Z,188
2016-11-23T20:24:42.212Z,188
2016-11-23T20:24:47.932Z,188
2016-11-23T20:24:53.843Z,188
2016-11-23T20:25:02.479Z,188
2016-11-23T20:25:08.252Z,188
2016-11-23T20:25:14.002Z,188
2016-11-23T20:25:19.730Z,188
2016-11-23T20:25:25.792Z,184
2016-11-23T20:25:31.539Z,72
2016-11-23T20:25:37.260Z,72
2016-11-23T20:25:42.982Z,72
2016-11-23T20:25:48.703Z,72
2016-11-23T20:25:54.436Z,72
2016-11-23T20:26:00.166Z,72
2016-11-23T20:26:05.886Z,72
2016-11-23T20:26:11.631Z,72
2016-11-23T20:26:17.478Z,72
2016-11-23T20:26:23.384Z,72
2016-11-23T20:26:29.137Z,68
2016-11-23T20:26:34.865Z,72
2016-11-23T20:26:40.607Z,72
2016-11-23T20:26:46.343Z,72
2016-11-23T20:26:52.065Z,68
2016-11-23T20:26:57.804Z,68
2016-11-23T20:27:03.577Z,68
2016-11-23T20:27:09.554Z,72
2016-11-23T20:27:15.267Z,72
2016-11-23T20:27:20.984Z,72
2016-11-23T20:27:26.709Z,72
2016-11-23T20:27:32.451Z,72
2016-11-23T20:27:38.247Z,72
2016-11-23T20:27:44.022Z,72
2016-11-23T20:27:49.774Z,72
2016-11-23T20:27:55.522Z,72
2016-11-23T20:28:01.266Z,72
2016-11-23T20:28:07.000Z,72
2016-11-23T20:28:12.794Z,72
2016-11-23T20:28:18.624Z,72
2016-11-23T20:28:24.540Z,72
2016-11-23T20:28:30.330Z,68
2016-11-23T20:28:36.069Z,72
2016-11-23T20:28:41.872Z,72
2016-11-23T20:28:47.608Z,68
2016-11-23T20:28:53.340Z,72
2016-11-23T20:28:59.100Z,72
2016-11-23T20:29:04.902Z,72
2016-11-23T20:29:10.663Z,72
2016-11-23T20:29:16.425Z,72
2016-11-23T20:29:22.141Z,72
2016-11-23T20:29:27.865Z,72
2016-11-23T20:29:33.596Z,72
2016-11-23T20:29:39.328Z,72
2016-11-23T20:29:45.137Z,72
2016-11-23T20:29:50.851Z,72
2016-11-23T20:29:56.614Z,72
2016-11-23T20:30:02.397Z,72
2016-11-23T20:30:08.156Z,72
2016-11-23T20:30:13.898Z,72
2016-11-23T20:30:19.629Z,72
2016-11-23T20:30:25.370Z,72
2016-11-23T20:30:31.163Z,72
2016-11-23T20:30:36.901Z,72
2016-11-23T20:30:42.636Z,72
2016-11-23T20:30:48.363Z,72
2016-11-23T20:30:54.097Z,72
2016-11-23T20:30:59.820Z,72
2016-11-23T20:31:05.577Z,72
2016-11-23T20:31:11.403Z,72
2016-11-23T20:31:17.137Z,72
2016-11-23T20:31:22.945Z,72
2016-11-23T20:31:28.752Z,72
2016-11-23T20:31:34.580Z,72
2016-11-23T20:31:40.302Z,72
2016-11-23T20:31:46.205Z,72
2016-11-23T20:31:52.192Z,72
2016-11-23T20:31:57.977Z,72
2016-11-23T20:32:03.882Z,72
2016-11-23T20:32:09.829Z,72
2016-11-23T20:32:15.652Z,72
2016-11-23T20:32:21.477Z,72
2016-11-23T20:32:27.420Z,72
2016-11-23T20:32:33.226Z,72
2016-11-23T20:32:39.044Z,72
2016-11-23T20:32:44.793Z,72
2016-11-23T20:32:50.511Z,72
2016-11-23T20:32:56.276Z,72
2016-11-23T20:33:02.032Z,72
2016-11-23T20:33:07.900Z,72
2016-11-23T20:33:13.807Z,72
2016-11-23T20:33:19.742Z,72
2016-11-23T20:33:25.667Z,72
2016-11-23T20:33:33.340Z,68
2016-11-23T20:33:39.365Z,68
2016-11-23T20:33:47.196Z,68
2016-11-23T20:33:53.001Z,68
2016-11-23T20:33:58.857Z,68
2016-11-23T20:34:04.905Z,68
2016-11-23T20:34:12.282Z,72
2016-11-23T20:34:19.437Z,68
2016-11-23T20:34:26.534Z,72
2016-11-23T20:34:33.072Z,72
2016-11-23T20:34:38.820Z,72
2016-11-23T20:34:44.602Z,72
2016-11-23T20:34:50.350Z,72
2016-11-23T20:34:56.070Z,72
2016-11-23T20:35:01.786Z,72
2016-11-23T20:35:07.510Z,72
2016-11-23T20:35:13.335Z,72
2016-11-23T20:35:21.483Z,68
2016-11-23T20:35:29.452Z,60
2016-11-23T20:35:37.504Z,60
2016-11-23T20:35:45.575Z,64
2016-11-23T20:35:52.924Z,68
2016-11-23T20:36:00.157Z,64
2016-11-23T20:36:07.649Z,68
2016-11-23T20:36:13.363Z,68
2016-11-23T20:36:19.200Z,68
2016-11-23T20:36:24.942Z,64
2016-11-23T20:36:30.665Z,64
2016-11-23T20:36:36.408Z,64
2016-11-23T20:36:42.362Z,64
2016-11-23T20:36:48.123Z,64
2016-11-23T20:36:53.876Z,68
2016-11-23T20:36:59.679Z,64
2016-11-23T20:37:05.662Z,64
2016-11-23T20:37:11.568Z,64
2016-11-23T20:37:17.933Z,68
2016-11-23T20:37:23.783Z,64
2016-11-23T20:37:30.571Z,64
2016-11-23T20:37:36.724Z,64
2016-11-23T20:37:42.716Z,68
2016-11-23T20:37:48.631Z,64
2016-11-23T20:37:54.413Z,64
2016-11-23T20:38:00.194Z,64
2016-11-23T20:38:05.952Z,68
2016-11-23T20:38:11.715Z,64
2016-11-23T20:38:17.415Z,64
2016-11-23T20:38:23.164Z,64
2016-11-23T20:38:28.897Z,68
2016-11-23T20:38:34.698Z,68
2016-11-23T20:38:40.433Z,64
2016-11-23T20:38:46.276Z,64
2016-11-23T20:38:52.045Z,64
2016-11-23T20:38:57.785Z,64
2016-11-23T20:39:03.544Z,68
2016-11-23T20:39:09.300Z,64
2016-11-23T20:39:15.069Z,68
2016-11-23T20:39:20.802Z,68
2016-11-23T20:39:26.551Z,68
2016-11-23T20:39:32.359Z,64
2016-11-23T20:39:38.143Z,68
2016-11-23T20:39:43.860Z,68
2016-11-23T20:39:49.599Z,68
2016-11-23T20:39:55.315Z,64
2016-11-23T20:40:02.651Z,64
2016-11-23T20:40:08.519Z,64
2016-11-23T20:40:14.280Z,68
2016-11-23T20:40:20.481Z,68
2016-11-23T20:40:26.200Z,64
2016-11-23T20:40:31.992Z,64
2016-11-23T20:40:37.787Z,68
2016-11-23T20:40:43.609Z,68
2016-11-23T20:40:49.351Z,68
2016-11-23T20:40:55.080Z,68
2016-11-23T20:41:00.828Z,68
2016-11-23T20:41:06.594Z,68
2016-11-23T20:41:12.341Z,68
2016-11-23T20:41:18.151Z,64
2016-11-23T20:41:24.270Z,68
2016-11-23T20:41:31.425Z,68
2016-11-23T20:41:38.689Z,68
2016-11-23T20:41:46.080Z,68
2016-11-23T20:41:52.965Z,64
2016-11-23T20:41:59.685Z,68
2016-11-23T20:42:05.439Z,68
2016-11-23T20:42:11.176Z,68
2016-11-23T20:42:16.897Z,68
2016-11-23T20:42:22.701Z,68
2016-11-23T20:42:28.989Z,72
2016-11-23T20:42:34.752Z,72
2016-11-23T20:42:40.580Z,68
2016-11-23T20:42:47.200Z,68
2016-11-23T20:42:52.967Z,68
2016-11-23T20:42:58.746Z,68
2016-11-23T20:43:04.485Z,72
2016-11-23T20:43:10.237Z,68
2016-11-23T20:43:15.963Z,72
2016-11-23T20:43:21.690Z,72
2016-11-23T20:43:27.491Z,64
2016-11-23T20:43:33.252Z,68
2016-11-23T20:43:39.120Z,64
2016-11-23T20:43:45.779Z,64
2016-11-23T20:43:51.533Z,64
2016-11-23T20:43:57.331Z,64
2016-11-23T20:44:03.094Z,68
2016-11-23T20:44:08.911Z,68
2016-11-23T20:44:14.738Z,68
2016-11-23T20:44:20.452Z,68
2016-11-23T20:44:26.184Z,68
2016-11-23T20:44:31.901Z,68
2016-11-23T20:44:37.638Z,68
2016-11-23T20:44:43.822Z,68
2016-11-23T20:44:49.672Z,72
2016-11-23T20:44:55.468Z,68
2016-11-23T20:45:01.958Z,68
2016-11-23T20:45:08.005Z,68
2016-11-23T20:45:13.723Z,68
2016-11-23T20:45:19.608Z,68
2016-11-23T20:45:25.637Z,68
2016-11-23T20:46:56.897Z,72
2016-11-23T20:47:02.774Z,68
2016-11-23T20:47:08.513Z,68
2016-11-23T20:47:14.229Z,72
2016-11-23T20:47:19.944Z,68
2016-11-23T20:47:25.661Z,68
2016-11-23T20:47:31.388Z,68
2016-11-23T20:47:37.103Z,68
2016-11-23T20:47:45.305Z,68
2016-11-23T20:47:52.002Z,68
2016-11-23T20:48:00.142Z,68
2016-11-23T20:48:06.055Z,68
2016-11-23T20:48:11.770Z,68
2016-11-23T20:48:17.487Z,68
2016-11-23T20:48:23.216Z,68
2016-11-23T20:48:29.030Z,68
2016-11-23T20:48:34.783Z,68
2016-11-23T20:48:40.739Z,68
2016-11-23T20:48:46.457Z,64
2016-11-23T20:48:52.170Z,68
2016-11-23T20:48:57.885Z,68
2016-11-23T20:49:03.611Z,68
2016-11-23T20:49:09.350Z,68
2016-11-23T20:49:15.066Z,64
2016-11-23T20:49:20.782Z,68
2016-11-23T20:49:26.495Z,72
2016-11-23T20:49:32.281Z,68
2016-11-23T20:49:37.988Z,68
2016-11-23T20:49:43.711Z,68
2016-11-23T20:49:49.429Z,68
2016-11-23T20:49:55.147Z,68
2016-11-23T20:50:00.960Z,68
2016-11-23T20:50:06.684Z,72
2016-11-23T20:50:12.400Z,72
2016-11-23T20:50:18.113Z,72
2016-11-23T20:50:23.824Z,72
2016-11-23T20:50:29.541Z,72
2016-11-23T20:50:35.252Z,72
2016-11-23T20:50:40.964Z,72
2016-11-23T20:50:46.679Z,72
2016-11-23T20:50:52.396Z,72
2016-11-23T20:50:58.111Z,72
2016-11-23T20:51:03.824Z,72
2016-11-23T20:51:09.554Z,72
2016-11-23T20:51:15.269Z,72
2016-11-23T20:51:20.983Z,72
2016-11-23T20:51:26.699Z,72
2016-11-23T20:51:32.415Z,72
2016-11-23T20:51:38.131Z,72
2016-11-23T20:51:43.843Z,72
2016-11-23T20:51:49.587Z,72
2016-11-23T20:51:55.303Z,72
2016-11-23T20:52:01.018Z,72
2016-11-23T20:52:06.731Z,72
2016-11-23T20:52:12.445Z,72
2016-11-23T20:52:18.157Z,72
2016-11-23T20:52:23.875Z,72
2016-11-23T20:52:29.593Z,72
2016-11-23T20:52:35.303Z,72
2016-11-23T20:52:41.018Z,72
2016-11-23T20:52:46.736Z,72
2016-11-23T20:52:52.477Z,72
2016-11-23T20:52:58.202Z,72
2016-11-23T20:53:03.920Z,72
2016-11-23T20:53:09.640Z,72
2016-11-23T20:53:15.360Z,72
2016-11-23T20:53:21.080Z,72
2016-11-23T20:53:26.790Z,72
2016-11-23T20:53:32.508Z,72
2016-11-23T20:53:38.223Z,72
2016-11-23T20:53:43.933Z,72
2016-11-23T20:53:49.648Z,72
2016-11-23T20:53:55.359Z,72
2016-11-23T20:54:01.074Z,72
2016-11-23T20:54:06.786Z,72
2016-11-23T20:54:12.500Z,72
2016-11-23T20:54:18.208Z,72
2016-11-23T20:54:23.923Z,72
2016-11-23T20:54:29.650Z,72
2016-11-23T20:54:35.368Z,72
2016-11-23T20:54:41.071Z,72
2016-11-23T20:54:46.795Z,72
2016-11-23T20:54:52.514Z,72
2016-11-23T20:54:58.226Z,72
2016-11-23T20:55:03.946Z,72
2016-11-23T20:55:09.664Z,72
2016-11-23T20:55:15.374Z,72
2016-11-23T20:55:21.093Z,72
2016-11-23T20:55:26.807Z,72
2016-11-23T20:55:32.524Z,72
2016-11-23T20:55:38.237Z,72
2016-11-23T20:55:43.950Z,72
2016-11-23T20:55:49.661Z,72
2016-11-23T20:55:55.399Z,72
2016-11-23T20:56:01.117Z,72
2016-11-23T20:56:06.837Z,72
2016-11-23T20:56:12.549Z,72
2016-11-23T20:56:18.270Z,72
2016-11-23T20:56:23.987Z,72
2016-11-23T20:56:29.705Z,72
2016-11-23T20:56:35.416Z,72
2016-11-23T20:56:41.141Z,72
2016-11-23T20:56:46.855Z,72
2016-11-23T20:56:52.565Z,72
2016-11-23T20:56:58.282Z,72
2016-11-23T20:57:03.996Z,72
2016-11-23T20:57:09.721Z,72
2016-11-23T20:57:15.434Z,72
2016-11-23T20:57:21.185Z,72
2016-11-23T20:57:26.913Z,72
2016-11-23T20:57:32.705Z,72
2016-11-23T20:57:38.426Z,72
2016-11-23T20:57:44.166Z,72
2016-11-23T20:57:49.908Z,72
2016-11-23T20:57:55.740Z,72
2016-11-23T20:58:01.453Z,72
2016-11-23T20:58:07.185Z,72
2016-11-23T20:58:12.917Z,72
2016-11-23T20:58:18.635Z,72
2016-11-23T20:58:24.361Z,72
2016-11-23T20:58:30.073Z,72
2016-11-23T20:58:35.790Z,72
2016-11-23T20:58:41.505Z,72
2016-11-23T20:58:47.217Z,72
2016-11-23T20:58:52.936Z,72
2016-11-23T20:58:58.654Z,72
2016-11-23T20:59:04.368Z,72
2016-11-23T20:59:10.080Z,72
2016-11-23T20:59:15.798Z,72
2016-11-23T20:59:21.511Z,72
2016-11-23T20:59:27.230Z,72
2016-11-23T20:59:33.077Z,72
2016-11-23T20:59:38.787Z,72
2016-11-23T20:59:44.501Z,72
2016-11-23T20:59:50.225Z,72
2016-11-23T20:59:55.966Z,72
2016-11-23T21:00:01.723Z,72
2016-11-23T21:00:07.442Z,72
2016-11-23T21:00:13.156Z,72
2016-11-23T21:00:18.872Z,72
2016-11-23T21:00:24.604Z,72
2016-11-23T21:00:30.322Z,72
2016-11-23T21:00:36.042Z,72
2016-11-23T21:00:41.759Z,72
2016-11-23T21:00:47.475Z,72
2016-11-23T21:00:53.189Z,72
2016-11-23T21:00:58.908Z,72
2016-11-23T21:01:04.633Z,72
2016-11-23T21:01:10.357Z,72
2016-11-23T21:01:16.088Z,72
2016-11-23T21:01:21.839Z,72
2016-11-23T21:01:27.571Z,72
2016-11-23T21:01:33.301Z,72
2016-11-23T21:01:39.034Z,72
2016-11-23T21:01:44.767Z,72
2016-11-23T21:01:50.503Z,72
2016-11-23T21:01:56.257Z,72
2016-11-23T21:02:02.028Z,72
2016-11-23T21:02:07.772Z,72
2016-11-23T21:02:13.498Z,72
2016-11-23T21:02:19.220Z,72
2016-11-23T21:02:24.934Z,72
2016-11-23T21:02:30.657Z,72
2016-11-23T21:02:36.387Z,72
2016-11-23T21:02:42.110Z,72
2016-11-23T21:02:47.847Z,72
2016-11-23T21:02:53.568Z,72
2016-11-23T21:02:59.307Z,72
2016-11-23T21:03:05.026Z,72
2016-11-23T21:03:10.747Z,72
2016-11-23T21:03:16.528Z,72
2016-11-23T21:03:22.352Z,72
2016-11-23T21:03:28.107Z,72
2016-11-23T21:03:33.941Z,72
2016-11-23T21:03:39.658Z,72
2016-11-23T21:03:45.382Z,72
2016-11-23T21:03:51.105Z,72
2016-11-23T21:03:56.828Z,72
2016-11-23T21:04:02.537Z,72
2016-11-23T21:04:08.267Z,72
2016-11-23T21:04:13.997Z,72
2016-11-23T21:04:19.720Z,72
2016-11-23T21:04:25.441Z,72
2016-11-23T21:04:31.163Z,72
2016-11-23T21:04:36.884Z,72
2016-11-23T21:04:42.596Z,72
2016-11-23T21:04:48.309Z,72
2016-11-23T21:04:54.033Z,72
2016-11-23T21:04:59.759Z,72
2016-11-23T21:05:05.477Z,72
2016-11-23T21:05:11.197Z,72
2016-11-23T21:05:16.915Z,72
2016-11-23T21:05:22.630Z,72
2016-11-23T21:05:28.349Z,72
2016-11-23T21:05:34.066Z,72
2016-11-23T21:05:39.779Z,72
2016-11-23T21:05:45.493Z,72
2016-11-23T21:05:51.207Z,72
2016-11-23T21:05:56.925Z,72
2016-11-23T21:06:02.645Z,72
2016-11-23T21:06:08.360Z,72
2016-11-23T21:06:14.085Z,72
2016-11-23T21:06:19.796Z,72
2016-11-23T21:06:25.511Z,72
2016-11-23T21:06:31.238Z,72
2016-11-23T21:06:36.953Z,72
2016-11-23T21:06:42.673Z,72
2016-11-23T21:06:48.392Z,72
2016-11-23T21:06:54.127Z,72
2016-11-23T21:06:59.867Z,72
2016-11-23T21:07:05.600Z,72
2016-11-23T21:07:11.349Z,72
2016-11-23T21:07:17.069Z,72
2016-11-23T21:07:22.789Z,72
2016-11-23T21:07:28.528Z,72
2016-11-23T21:07:34.240Z,72
2016-11-23T21:07:40.099Z,72
2016-11-23T21:07:45.814Z,72
2016-11-23T21:07:51.533Z,72
2016-11-23T21:07:57.249Z,72
2016-11-23T21:08:02.974Z,72
2016-11-23T21:08:08.693Z,72
2016-11-23T21:08:14.410Z,72
2016-11-23T21:08:20.126Z,72
2016-11-23T21:08:25.841Z,72
2016-11-23T21:08:31.571Z,72
2016-11-23T21:08:37.292Z,72
2016-11-23T21:08:43.009Z,72
2016-11-23T21:08:48.726Z,72
2016-11-23T21:08:54.442Z,72
2016-11-23T21:09:00.162Z,72
2016-11-23T21:09:05.880Z,72
2016-11-23T21:09:11.631Z,72
2016-11-23T21:09:17.345Z,72
2016-11-23T21:09:23.060Z,72
2016-11-23T21:09:28.781Z,72
2016-11-23T21:09:34.498Z,72
2016-11-23T21:09:40.213Z,72
2016-11-23T21:09:45.931Z,72
2016-11-23T21:09:51.659Z,72
2016-11-23T21:09:57.392Z,72
2016-11-23T21:10:03.160Z,72
2016-11-23T21:10:09.722Z,72
2016-11-23T21:10:15.441Z,72
2016-11-23T21:10:21.270Z,72
2016-11-23T21:10:26.987Z,72
2016-11-23T21:10:32.707Z,72
2016-11-23T21:10:38.433Z,72
2016-11-23T21:10:44.173Z,72
2016-11-23T21:10:49.892Z,72
2016-11-23T21:10:55.686Z,72
2016-11-23T21:11:01.402Z,72
2016-11-23T21:11:07.115Z,72
2016-11-23T21:11:12.833Z,72
2016-11-23T21:11:18.563Z,72
2016-11-23T21:11:24.286Z,72
2016-11-23T21:11:30.019Z,72
2016-11-23T21:11:35.734Z,72
2016-11-23T21:11:41.473Z,72
2016-11-23T21:11:47.217Z,72
2016-11-23T21:11:53.004Z,72
2016-11-23T21:11:58.755Z,72
2016-11-23T21:12:04.492Z,72
2016-11-23T21:12:10.261Z,72
2016-11-23T21:12:16.046Z,72
2016-11-23T21:12:22.026Z,72
2016-11-23T21:12:27.761Z,72
2016-11-23T21:12:33.496Z,72
2016-11-23T21:12:39.218Z,72
2016-11-23T21:12:44.934Z,72
2016-11-23T21:12:50.655Z,72
2016-11-23T21:12:56.376Z,72
2016-11-23T21:13:02.098Z,72
2016-11-23T21:13:07.819Z,72
2016-11-23T21:13:13.530Z,72
2016-11-23T21:13:19.256Z,72
2016-11-23T21:13:25.007Z,72
2016-11-23T21:13:30.730Z,72
2016-11-23T21:13:36.439Z,72
2016-11-23T21:13:42.282Z,72
2016-11-23T21:13:47.998Z,72
2016-11-23T21:13:53.769Z,72
2016-11-23T21:13:59.442Z,72
2016-11-23T21:14:05.680Z,72
2016-11-23T21:14:11.397Z,72
2016-11-23T21:14:17.112Z,72
2016-11-23T21:14:22.826Z,72
2016-11-23T21:14:28.542Z,72
2016-11-23T21:14:34.255Z,72
2016-11-23T21:14:39.977Z,72
2016-11-23T21:14:45.695Z,72
2016-11-23T21:14:51.418Z,72
2016-11-23T21:14:57.132Z,72
2016-11-23T21:15:02.844Z,72
2016-11-23T21:15:08.560Z,72
2016-11-23T21:15:14.289Z,72
2016-11-23T21:15:19.998Z,72
2016-11-23T21:15:25.719Z,72
2016-11-23T21:15:31.492Z,72
2016-11-23T21:15:37.210Z,72
2016-11-23T21:15:43.082Z,72
2016-11-23T21:15:48.794Z,72
2016-11-23T21:15:54.509Z,72
2016-11-23T21:16:00.225Z,72
2016-11-23T21:16:05.941Z,72
2016-11-23T21:16:12.080Z,72
2016-11-23T21:16:17.796Z,72
2016-11-23T21:16:23.512Z,72
2016-11-23T21:16:29.231Z,72
2016-11-23T21:16:34.952Z,72
2016-11-23T21:16:40.672Z,72
2016-11-23T21:16:46.392Z,72
2016-11-23T21:16:52.102Z,72
2016-11-23T21:16:57.815Z,72
2016-11-23T21:17:03.532Z,72
2016-11-23T21:17:09.249Z,72
2016-11-23T21:17:14.967Z,72
2016-11-23T21:17:20.685Z,72
2016-11-23T21:17:26.400Z,72
2016-11-23T21:17:32.117Z,72
2016-11-23T21:17:37.833Z,72
2016-11-23T21:17:43.550Z,72
2016-11-23T21:17:49.273Z,72
2016-11-23T21:17:54.996Z,72
2016-11-23T21:18:00.735Z,72
2016-11-23T21:18:06.454Z,72
2016-11-23T21:18:12.180Z,72
2016-11-23T21:18:17.900Z,72
2016-11-23T21:18:23.616Z,72
2016-11-23T21:18:29.334Z,72
2016-11-23T21:18:35.053Z,72
2016-11-23T21:18:40.768Z,72
2016-11-23T21:18:46.484Z,72
2016-11-23T21:18:52.193Z,72
2016-11-23T21:18:57.909Z,72
2016-11-23T21:19:03.634Z,72
2016-11-23T21:19:09.361Z,72
2016-11-23T21:19:15.077Z,72
2016-11-23T21:19:20.800Z,72
2016-11-23T21:19:26.517Z,72
2016-11-23T21:19:32.236Z,72
2016-11-23T21:19:37.976Z,72
2016-11-23T21:19:43.700Z,72
2016-11-23T21:19:49.415Z,72
2016-11-23T21:19:55.130Z,72
2016-11-23T21:20:00.852Z,72
2016-11-23T21:20:06.564Z,72
2016-11-23T21:20:12.282Z,72
2016-11-23T21:20:18.000Z,72
2016-11-23T21:20:23.721Z,72
2016-11-23T21:20:29.433Z,72
2016-11-23T21:20:35.145Z,72
2016-11-23T21:20:40.859Z,72
2016-11-23T21:20:46.576Z,72
2016-11-23T21:20:52.289Z,72
2016-11-23T21:20:58.006Z,72
2016-11-23T21:21:03.726Z,72
2016-11-23T21:21:09.446Z,72
2016-11-23T21:21:15.175Z,72
2016-11-23T21:21:20.895Z,72
2016-11-23T21:21:26.610Z,72
2016-11-23T21:21:32.329Z,72
2016-11-23T21:21:38.048Z,72
2016-11-23T21:21:43.773Z,72
2016-11-23T21:21:49.522Z,72
2016-11-23T21:21:55.239Z,72
2016-11-23T21:22:00.956Z,72
2016-11-23T21:22:06.675Z,72
2016-11-23T21:22:12.404Z,72
2016-11-23T21:22:18.125Z,72
2016-11-23T21:22:23.852Z,72
2016-11-23T21:22:29.572Z,72
2016-11-23T21:22:35.295Z,72
2016-11-23T21:22:41.009Z,72
2016-11-23T21:22:46.726Z,72
2016-11-23T21:22:52.444Z,72
2016-11-23T21:22:58.157Z,72
2016-11-23T21:23:03.870Z,72
2016-11-23T21:23:09.589Z,72
2016-11-23T21:23:15.305Z,72
2016-11-23T21:23:21.032Z,72
2016-11-23T21:23:26.749Z,72
2016-11-23T21:23:32.465Z,72
2016-11-23T21:23:38.176Z,72
2016-11-23T21:23:43.892Z,72
2016-11-23T21:23:49.613Z,72
2016-11-23T21:23:55.329Z,72
2016-11-23T21:24:01.045Z,72
2016-11-23T21:24:06.769Z,72
2016-11-23T21:24:12.480Z,72
2016-11-23T21:24:18.199Z,72
2016-11-23T21:24:23.916Z,72
2016-11-23T21:24:29.632Z,72
2016-11-23T21:24:35.349Z,72
2016-11-23T21:24:41.069Z,72
2016-11-23T21:24:46.785Z,72
2016-11-23T21:24:52.496Z,72
2016-11-23T21:24:58.228Z,72
2016-11-23T21:25:03.945Z,72
2016-11-23T21:25:09.665Z,72
2016-11-23T21:25:15.377Z,72
2016-11-23T21:25:21.100Z,72
2016-11-23T21:25:26.821Z,72
2016-11-23T21:25:32.536Z,72
2016-11-23T21:25:38.260Z,72
2016-11-23T21:25:43.974Z,72
2016-11-23T21:25:49.681Z,72
2016-11-23T21:25:55.418Z,72
2016-11-23T21:26:01.143Z,72
2016-11-23T21:26:06.854Z,72
2016-11-23T21:26:12.568Z,72
2016-11-23T21:26:18.291Z,72
2016-11-23T21:26:24.015Z,72
2016-11-23T21:26:29.729Z,72
2016-11-23T21:26:35.441Z,72
2016-11-23T21:26:41.155Z,72
2016-11-23T21:26:46.872Z,72
2016-11-23T21:26:52.585Z,72
2016-11-23T21:26:58.297Z,72
2016-11-23T21:27:04.008Z,72
2016-11-23T21:27:09.729Z,72
2016-11-23T21:27:15.443Z,72
2016-11-23T21:27:21.156Z,72
2016-11-23T21:27:26.871Z,72
2016-11-23T21:27:32.594Z,72
2016-11-23T21:27:38.309Z,72
2016-11-23T21:27:44.030Z,72
2016-11-23T21:27:49.750Z,72
2016-11-23T21:27:55.464Z,72
2016-11-23T21:28:01.180Z,72
2016-11-23T21:28:06.897Z,72
2016-11-23T21:28:12.613Z,72
2016-11-23T21:28:18.327Z,72
2016-11-23T21:28:24.044Z,72
2016-11-23T21:28:29.759Z,72
2016-11-23T21:28:35.477Z,72
2016-11-23T21:28:41.197Z,72
2016-11-23T21:28:46.913Z,72
2016-11-23T21:28:52.626Z,72
2016-11-23T21:28:58.339Z,72
2016-11-23T21:29:04.054Z,72
2016-11-23T21:29:09.778Z,72
2016-11-23T21:29:15.482Z,72
2016-11-23T21:29:21.203Z,72
2016-11-23T21:29:26.922Z,72
2016-11-23T21:29:32.642Z,72
2016-11-23T21:29:38.363Z,72
2016-11-23T21:29:44.080Z,72
2016-11-23T21:29:49.795Z,72
2016-11-23T21:29:55.514Z,72
2016-11-23T21:30:01.234Z,72
2016-11-23T21:30:06.946Z,72
2016-11-23T21:30:12.663Z,72
2016-11-23T21:30:18.376Z,72
2016-11-23T21:30:24.089Z,72
2016-11-23T21:30:29.805Z,72
2016-11-23T21:30:35.521Z,72
2016-11-23T21:30:41.236Z,72
2016-11-23T21:30:46.953Z,72
2016-11-23T21:30:52.664Z,72
2016-11-23T21:30:58.373Z,72
2016-11-23T21:31:04.081Z,72
2016-11-23T21:31:09.794Z,72
2016-11-23T21:31:15.513Z,72
2016-11-23T21:31:21.230Z,72
2016-11-23T21:31:26.950Z,72
2016-11-23T21:31:32.664Z,72
2016-11-23T21:31:38.377Z,72
2016-11-23T21:31:44.094Z,72
2016-11-23T21:31:49.808Z,72
2016-11-23T21:31:55.558Z,72
2016-11-23T21:32:01.498Z,72
2016-11-23T21:32:07.214Z,72
2016-11-23T21:32:12.932Z,72
2016-11-23T21:32:18.651Z,72
2016-11-23T21:32:24.368Z,72
2016-11-23T21:32:30.081Z,72
2016-11-23T21:32:35.798Z,72
2016-11-23T21:32:41.516Z,72
2016-11-23T21:32:47.237Z,72
2016-11-23T21:32:52.953Z,72
2016-11-23T21:32:58.665Z,72
2016-11-23T21:33:04.380Z,72
2016-11-23T21:33:10.095Z,72
2016-11-23T21:33:15.805Z,72
2016-11-23T21:33:21.516Z,72
2016-11-23T21:33:27.234Z,72
2016-11-23T21:33:32.949Z,72
2016-11-23T21:33:38.665Z,72
2016-11-23T21:33:44.381Z,72
2016-11-23T21:33:50.095Z,72
2016-11-23T21:33:56.628Z,72
2016-11-23T21:34:02.343Z,72
2016-11-23T21:34:08.059Z,72
2016-11-23T21:34:13.774Z,72
2016-11-23T21:34:19.494Z,72
2016-11-23T21:34:25.214Z,72
2016-11-23T21:34:30.927Z,72
2016-11-23T21:34:36.644Z,72
2016-11-23T21:34:42.361Z,72
2016-11-23T21:34:48.073Z,72
2016-11-23T21:34:53.785Z,72
2016-11-23T21:34:59.508Z,72
2016-11-23T21:35:05.221Z,72
2016-11-23T21:35:10.942Z,72
2016-11-23T21:35:16.657Z,72
2016-11-23T21:35:22.370Z,72
2016-11-23T21:35:28.083Z,72
2016-11-23T21:35:33.800Z,72
2016-11-23T21:35:39.517Z,72
2016-11-23T21:35:45.233Z,72
2016-11-23T21:35:50.947Z,72
2016-11-23T21:35:56.662Z,72
2016-11-23T21:36:02.372Z,72
2016-11-23T21:36:08.091Z,72
2016-11-23T21:36:13.810Z,72
2016-11-23T21:36:19.528Z,72
2016-11-23T21:36:25.235Z,72
2016-11-23T21:36:30.956Z,72
2016-11-23T21:36:36.666Z,72
2016-11-23T21:36:42.383Z,72
2016-11-23T21:36:48.099Z,72
2016-11-23T21:36:53.841Z,72
2016-11-23T21:36:59.558Z,72
2016-11-23T21:37:05.272Z,72
2016-11-23T21:37:11.010Z,72
2016-11-23T21:37:16.711Z,72
2016-11-23T21:37:22.423Z,72
2016-11-23T21:37:28.138Z,72
2016-11-23T21:37:33.856Z,72
2016-11-23T21:37:39.576Z,72
2016-11-23T21:37:45.286Z,72
2016-11-23T21:37:51.005Z,72
2016-11-23T21:37:56.729Z,72
2016-11-23T21:38:02.443Z,72
2016-11-23T21:38:11.216Z,72
2016-11-23T21:38:20.254Z,72
2016-11-23T21:38:26.690Z,72
2016-11-23T21:38:32.416Z,72
2016-11-23T21:38:38.126Z,72
2016-11-23T21:38:43.846Z,72
2016-11-23T21:38:49.560Z,72
2016-11-23T21:38:55.271Z,72
2016-11-23T21:39:00.990Z,72
2016-11-23T21:39:06.713Z,72
2016-11-23T21:39:12.428Z,72
2016-11-23T21:39:18.143Z,72
2016-11-23T21:39:24.008Z,72
2016-11-23T21:39:29.730Z,72
2016-11-23T21:39:35.449Z,72
2016-11-23T21:39:41.164Z,72
2016-11-23T21:39:46.885Z,72
2016-11-23T21:39:52.606Z,72
2016-11-23T21:39:58.325Z,72
2016-11-23T21:40:04.040Z,72
2016-11-23T21:40:09.760Z,72
2016-11-23T21:40:15.482Z,72
2016-11-23T21:40:21.210Z,72
2016-11-23T21:40:26.929Z,72
2016-11-23T21:40:32.651Z,72
2016-11-23T21:40:38.367Z,72
2016-11-23T21:40:44.078Z,72
2016-11-23T21:40:49.790Z,72
2016-11-23T21:40:55.512Z,72
2016-11-23T21:41:01.226Z,72
2016-11-23T21:41:06.956Z,72
2016-11-23T21:41:12.673Z,72
2016-11-23T21:41:18.388Z,72
2016-11-23T21:41:24.097Z,72
2016-11-23T21:41:29.819Z,72
2016-11-23T21:41:35.535Z,72
2016-11-23T21:41:41.257Z,72
2016-11-23T21:41:46.963Z,72
2016-11-23T21:41:52.682Z,72
2016-11-23T21:41:58.398Z,72
2016-11-23T21:42:04.119Z,72
2016-11-23T21:42:09.830Z,72
2016-11-23T21:42:15.551Z,72
2016-11-23T21:42:21.271Z,72
2016-11-23T21:42:26.983Z,72
2016-11-23T21:42:32.707Z,72
2016-11-23T21:42:38.421Z,72
2016-11-23T21:42:44.135Z,72
2016-11-23T21:42:49.861Z,72
2016-11-23T21:42:55.576Z,72
2016-11-23T21:43:01.294Z,72
2016-11-23T21:43:07.003Z,72
2016-11-23T21:43:12.719Z,72
2016-11-23T21:43:18.429Z,72
2016-11-23T21:43:24.150Z,72